Time;durP1;ratioP1;P1;durP2;ratioP2;P2;SDS_P1;SDS_P2;PMS_P1;PMS_P2;Temp;Humidity;BMP_temperature;BMP_pressure;BME280_temperature;BME280_humidity;BME280_pressure;Samples;Min_cycle;Max_cycle;Signal;HPM_P1;HPM_P2
2022/11/04 00:01:45;;;;;;;13.32;7.70;;;;;;;7.03;84.29;99871.66;7399132;19;20236;-67
2022/11/04 00:04:15;;;;;;;10.82;8.30;;;;;;;7.01;84.30;99871.69;7401694;19;20519;-67
2022/11/04 00:06:46;;;;;;;11.75;7.88;;;;;;;7.03;84.48;99874.25;7401991;19;20038;-67
2022/11/04 00:09:18;;;;;;;14.30;8.63;;;;;;;7.03;84.51;99868.16;7398880;19;20014;-68
2022/11/04 00:14:30;;;;;;;10.60;8.05;;;;;;;7.03;84.54;99863.81;7401212;19;20014;-68
2022/11/04 00:30:26;;;;;;;14.38;9.60;;;;;;;6.99;85.12;99872.59;7400735;19;20007;-67
2022/11/04 00:35:35;;;;;;;14.90;8.23;;;;;;;6.95;85.29;99869.19;7401105;19;20394;-67
2022/11/04 00:38:06;;;;;;;12.18;8.70;;;;;;;6.94;85.25;99867.47;7400174;19;20018;-67
2022/11/04 00:40:35;;;;;;;14.75;8.23;;;;;;;6.92;85.43;99865.78;7400758;19;20343;-67
2022/11/04 00:43:03;;;;;;;13.43;8.43;;;;;;;6.91;85.39;99864.06;7400338;19;20270;-67
2022/11/04 00:45:31;;;;;;;12.63;7.60;;;;;;;6.90;85.52;99867.56;7400326;19;20015;-67
2022/11/04 00:48:00;;;;;;;15.45;10.75;;;;;;;6.89;85.64;99864.13;7400165;19;20014;-68
2022/11/04 00:50:28;;;;;;;13.52;9.23;;;;;;;6.87;85.41;99859.81;7399054;19;20545;-68
2022/11/04 00:53:00;;;;;;;11.27;9.40;;;;;;;6.85;85.38;99855.50;7397043;19;20423;-68
2022/11/04 00:55:32;;;;;;;12.23;9.38;;;;;;;6.85;85.52;99845.06;7399204;19;20017;-68
2022/11/04 00:58:00;;;;;;;19.45;9.70;;;;;;;6.85;85.60;99837.25;7399484;19;20348;-68
2022/11/04 01:00:29;;;;;;;14.68;8.98;;;;;;;6.87;85.68;99831.13;7399662;19;20010;-68
2022/11/04 01:02:59;;;;;;;20.00;10.13;;;;;;;6.84;85.98;99832.91;7397241;19;20031;-68
2022/11/04 01:05:28;;;;;;;18.02;10.70;;;;;;;6.86;85.87;99845.91;7400354;19;20024;-68
2022/11/04 01:07:58;;;;;;;16.27;10.18;;;;;;;6.84;86.13;99855.53;7397148;19;20010;-68
2022/11/04 01:10:27;;;;;;;14.88;8.95;;;;;;;6.88;86.10;99871.97;7396923;19;20026;-68
2022/11/04 01:12:58;;;;;;;14.80;9.27;;;;;;;6.86;86.14;99869.38;7397076;19;20070;-68
2022/11/04 01:15:26;;;;;;;11.10;8.60;;;;;;;6.87;86.09;99871.09;7399299;19;20074;-68
2022/11/04 01:17:55;;;;;;;12.48;8.70;;;;;;;6.86;86.02;99871.97;7398805;19;20506;-67
2022/11/04 01:20:23;;;;;;;18.33;10.38;;;;;;;6.87;85.96;99863.28;7396397;19;20022;-67
2022/11/04 01:22:52;;;;;;;16.02;10.88;;;;;;;6.87;86.06;99852.00;7396661;19;20090;-67
2022/11/04 01:25:20;;;;;;;14.38;10.02;;;;;;;6.87;86.26;99857.22;7398896;19;20040;-68
2022/11/04 01:27:49;;;;;;;16.25;10.10;;;;;;;6.87;86.19;99855.44;7396235;19;20373;-68
2022/11/04 01:30:20;;;;;;;19.35;10.98;;;;;;;6.89;86.05;99851.06;7398327;19;20584;-67
2022/11/04 01:32:48;;;;;;;22.33;11.65;;;;;;;6.88;86.45;99844.13;7396884;19;20043;-67
2022/11/04 01:35:17;;;;;;;17.20;11.15;;;;;;;6.89;86.17;99840.66;7398102;19;20482;-67
2022/11/04 01:37:45;;;;;;;18.13;11.85;;;;;;;6.90;86.34;99837.16;7398510;19;20035;-68
2022/11/04 01:40:20;;;;;;;14.45;10.98;;;;;;;6.91;86.65;99827.56;7396205;19;20026;-68
2022/11/04 01:42:49;;;;;;;18.23;12.68;;;;;;;6.92;86.83;99819.69;7396336;19;20023;-68
2022/11/04 01:45:22;;;;;;;20.60;12.48;;;;;;;6.93;86.95;99821.44;7398210;19;20018;-68
2022/11/04 01:47:56;;;;;;;20.13;11.05;;;;;;;6.95;86.92;99826.59;7398627;19;20018;-68
2022/11/04 01:50:28;;;;;;;16.63;11.20;;;;;;;6.94;86.97;99822.31;7395573;19;20028;-67
2022/11/04 01:53:07;;;;;;;19.27;12.02;;;;;;;6.94;86.80;99814.47;7395861;19;20014;-67
2022/11/04 01:55:37;;;;;;;15.18;11.07;;;;;;;6.95;87.07;99819.66;7397223;19;20020;-67
2022/11/04 01:58:09;;;;;;;15.48;11.50;;;;;;;6.96;86.92;99812.69;7397418;19;20091;-67
2022/11/04 02:00:43;;;;;;;15.70;11.43;;;;;;;6.95;87.15;99809.22;7395728;19;20023;-67
2022/11/04 02:03:17;;;;;;;19.05;11.75;;;;;;;6.95;87.17;99814.44;7395423;19;20031;-67
2022/11/04 02:05:47;;;;;;;15.32;12.02;;;;;;;6.96;87.06;99823.09;7397189;19;20486;-67
2022/11/04 02:08:18;;;;;;;18.23;12.05;;;;;;;6.96;87.44;99810.94;7397838;19;20019;-67
2022/11/04 02:10:53;;;;;;;17.63;12.63;;;;;;;6.95;87.26;99803.13;7397143;19;20026;-67
2022/11/04 02:13:19;;;;;;;22.85;14.10;;;;;;;6.97;87.58;99810.03;7397688;19;20011;-67
2022/11/04 02:16:00;;;;;;;18.48;13.52;;;;;;;6.98;87.55;99809.13;7397233;19;20086;-67
2022/11/04 02:18:41;;;;;;;18.02;13.02;;;;;;;6.99;87.78;99795.22;7395779;19;20018;-67
2022/11/04 02:21:38;;;;;;;18.77;13.85;;;;;;;7.00;87.71;99790.84;7395999;19;20031;-67
2022/11/04 02:24:25;;;;;;;19.45;12.75;;;;;;;6.99;87.64;99779.56;7395562;19;20018;-67
2022/11/04 02:27:23;;;;;;;20.63;13.95;;;;;;;6.99;87.83;99776.97;7397361;19;20032;-68
2022/11/04 02:30:11;;;;;;;18.60;13.35;;;;;;;7.00;88.02;99769.97;7395770;19;20022;-67
2022/11/04 02:32:59;;;;;;;19.23;12.93;;;;;;;6.99;88.09;99763.06;7394230;19;20420;-67
2022/11/04 02:35:34;;;;;;;16.65;12.43;;;;;;;6.97;88.03;99757.88;7395843;19;20011;-68
2022/11/04 02:38:12;;;;;;;15.05;10.85;;;;;;;6.95;88.01;99769.22;7394986;19;20018;-68
2022/11/04 02:40:47;;;;;;;17.05;11.52;;;;;;;6.96;88.26;99776.16;7394251;19;20490;-69
2022/11/04 02:43:25;;;;;;;16.95;10.52;;;;;;;6.94;88.29;99773.59;7396770;19;20035;-69
2022/11/04 02:46:04;;;;;;;14.25;12.05;;;;;;;6.95;88.30;99779.66;7394855;19;20023;-67
2022/11/04 02:48:40;;;;;;;13.05;10.40;;;;;;;6.93;88.17;99769.28;7395894;19;20014;-67
2022/11/04 02:51:14;;;;;;;14.57;11.38;;;;;;;6.95;88.01;99777.94;7395554;19;20432;-66
2022/11/04 02:53:49;;;;;;;14.93;11.20;;;;;;;6.97;87.99;99776.13;7396454;19;20018;-67
2022/11/04 02:56:21;;;;;;;17.45;9.68;;;;;;;6.99;88.17;99770.91;7394920;19;20023;-67
2022/11/04 02:58:56;;;;;;;16.05;11.32;;;;;;;7.02;88.06;99783.84;7396301;19;20010;-67
2022/11/04 03:01:34;;;;;;;13.90;10.50;;;;;;;7.04;87.90;99809.91;7395460;19;20038;-67
2022/11/04 03:04:08;;;;;;;15.88;11.50;;;;;;;7.05;88.16;99791.63;7395372;19;20018;-67
2022/11/04 03:06:38;;;;;;;19.80;12.20;;;;;;;7.06;87.98;99795.94;7393683;19;20027;-67
2022/11/04 03:09:08;;;;;;;13.77;11.45;;;;;;;7.08;88.04;99798.53;7395918;19;20027;-67
2022/11/04 03:11:37;;;;;;;14.50;10.88;;;;;;;7.09;87.95;99805.44;7395594;19;20010;-68
2022/11/04 03:14:09;;;;;;;17.55;11.85;;;;;;;7.10;87.87;99800.22;7397088;19;20018;-67
2022/11/04 03:16:46;;;;;;;16.60;12.10;;;;;;;7.14;87.94;99808.78;7396111;19;20014;-67
2022/11/04 03:19:18;;;;;;;14.20;11.10;;;;;;;7.15;88.13;99815.72;7393546;19;20022;-68
2022/11/04 03:21:54;;;;;;;19.05;11.13;;;;;;;7.18;88.18;99815.69;7394287;19;20364;-67
2022/11/04 03:24:23;;;;;;;15.20;11.55;;;;;;;7.21;88.10;99825.19;7393796;19;20040;-68
2022/11/04 03:26:59;;;;;;;16.48;12.25;;;;;;;7.22;88.03;99814.72;7395105;19;20027;-68
2022/11/04 03:29:30;;;;;;;15.75;11.80;;;;;;;7.24;88.07;99807.72;7395436;19;20416;-67
2022/11/04 03:32:08;;;;;;;21.83;11.93;;;;;;;7.25;88.18;99812.00;7392582;19;20430;-68
2022/11/04 03:34:39;;;;;;;18.35;12.75;;;;;;;7.27;88.21;99802.41;7402881;19;20014;-68
2022/11/04 03:37:07;;;;;;;17.52;12.38;;;;;;;7.30;88.12;99810.19;7399111;19;20486;-67
2022/11/04 03:39:36;;;;;;;15.98;11.70;;;;;;;7.31;88.29;99804.06;7401790;19;20381;-67
2022/11/04 03:42:18;;;;;;;17.88;12.35;;;;;;;7.34;88.18;99805.72;7400501;19;20018;-67
2022/11/04 03:44:48;;;;;;;17.83;11.55;;;;;;;7.37;88.23;99817.84;7399009;19;20014;-67
2022/11/04 03:47:23;;;;;;;20.98;12.20;;;;;;;7.37;88.12;99821.34;7402188;19;20023;-67
2022/11/04 03:49:53;;;;;;;18.40;13.05;;;;;;;7.39;88.04;99814.31;7402502;19;20007;-67
2022/11/04 03:52:22;;;;;;;19.42;12.65;;;;;;;7.42;88.42;99819.47;7398683;19;20093;-67
2022/11/04 03:54:51;;;;;;;19.58;13.15;;;;;;;7.45;88.51;99810.72;7401867;19;20035;-67
2022/11/04 03:57:32;;;;;;;18.10;13.57;;;;;;;7.48;88.31;99805.41;7399313;19;20014;-68
2022/11/04 04:00:09;;;;;;;21.42;14.73;;;;;;;7.49;88.69;99794.94;7398509;19;20015;-67
2022/11/04 04:02:57;;;;;;;31.33;22.60;;;;;;;7.53;88.65;99792.25;7398732;19;20015;-67
2022/11/04 04:05:28;;;;;;;21.30;16.23;;;;;;;7.57;88.88;99784.31;7401820;19;20014;-67
2022/11/04 04:08:06;;;;;;;20.80;15.25;;;;;;;7.60;88.58;99784.22;7401779;19;20035;-67
2022/11/04 04:10:41;;;;;;;23.95;15.95;;;;;;;7.64;89.14;99785.84;7398979;19;20059;-68
2022/11/04 04:13:18;;;;;;;22.77;16.10;;;;;;;7.69;90.10;99792.75;7398499;19;20019;-68
2022/11/04 04:15:52;;;;;;;23.23;15.98;;;;;;;7.76;89.85;99802.09;7399326;19;20014;-67
2022/11/04 04:18:31;;;;;;;24.60;17.33;;;;;;;7.82;90.19;99802.84;7401307;19;20027;-67
2022/11/04 04:21:04;;;;;;;26.02;17.40;;;;;;;7.90;90.28;99809.59;7401033;19;20018;-67
2022/11/04 04:29:04;;;;;;;27.45;19.38;;;;;;;8.09;90.59;99803.00;7400928;19;20478;-67
2022/11/04 04:34:19;;;;;;;24.10;16.98;;;;;;;8.28;90.96;99808.59;7400124;19;20048;-66
2022/11/04 04:36:51;;;;;;;26.25;18.10;;;;;;;8.35;92.00;99806.66;7400064;19;20015;-67
2022/11/04 04:45:02;;;;;;;25.63;18.30;;;;;;;8.63;91.60;99798.94;7397630;19;20041;-67
2022/11/04 04:47:36;;;;;;;24.35;17.13;;;;;;;8.72;91.09;99792.59;7400561;19;20074;-68
2022/11/04 04:50:08;;;;;;;21.08;15.50;;;;;;;8.80;90.71;99800.19;7397643;19;20027;-67
2022/11/04 04:52:41;;;;;;;25.38;16.05;;;;;;;8.85;90.31;99793.06;7397454;19;20081;-68
2022/11/04 04:55:11;;;;;;;20.08;15.70;;;;;;;8.95;90.00;99806.75;7400091;19;20022;-68
2022/11/04 04:57:39;;;;;;;24.95;15.50;;;;;;;9.01;89.97;99808.31;7396950;19;20511;-68
2022/11/04 05:00:11;;;;;;;18.98;15.20;;;;;;;9.07;89.53;99809.00;7397324;19;20032;-67
2022/11/04 05:02:39;;;;;;;20.33;14.93;;;;;;;9.11;89.26;99804.50;7397650;19;20026;-67
2022/11/04 05:05:12;;;;;;;19.25;15.02;;;;;;;9.18;88.96;99802.56;7397509;19;20022;-68
2022/11/04 05:07:40;;;;;;;21.45;15.57;;;;;;;9.22;88.76;99809.41;7399462;19;20021;-67
2022/11/04 05:10:11;;;;;;;21.95;14.60;;;;;;;9.26;88.62;99817.13;7399182;19;20078;-68
2022/11/04 05:15:21;;;;;;;21.50;15.93;;;;;;;9.33;88.26;99832.66;7399314;19;20019;-67
2022/11/04 05:17:50;;;;;;;27.60;16.50;;;;;;;9.34;88.32;99852.66;7399478;19;20044;-69
2022/11/04 05:20:21;;;;;;;21.30;14.90;;;;;;;9.38;88.29;99842.06;7398196;19;20014;-69
2022/11/04 05:22:49;;;;;;;25.90;15.30;;;;;;;9.42;88.07;99848.91;7396526;19;20014;-68
2022/11/04 05:25:18;;;;;;;22.73;15.43;;;;;;;9.43;88.68;99853.25;7398574;19;20031;-70
2022/11/04 05:27:46;;;;;;;21.95;15.32;;;;;;;9.45;88.40;99848.81;7398488;19;20018;-68
2022/11/04 05:30:15;;;;;;;25.90;16.58;;;;;;;9.47;88.30;99856.63;7398315;19;20392;-68
2022/11/04 05:32:43;;;;;;;20.30;16.92;;;;;;;9.48;88.29;99863.56;7395483;19;20111;-69
2022/11/04 05:35:12;;;;;;;21.98;16.67;;;;;;;9.48;88.79;99865.31;7397954;19;20018;-68
2022/11/04 05:37:43;;;;;;;24.08;16.95;;;;;;;9.45;88.83;99861.03;7398103;19;20038;-68
2022/11/04 05:40:13;;;;;;;22.23;17.13;;;;;;;9.42;89.10;99867.22;7396163;19;20091;-69
2022/11/04 05:42:41;;;;;;;20.23;16.88;;;;;;;9.41;89.10;99867.28;7395879;19;20019;-69
2022/11/04 05:45:11;;;;;;;24.02;16.33;;;;;;;9.36;89.85;99856.94;7397986;19;20022;-68
2022/11/04 05:47:39;;;;;;;25.13;17.08;;;;;;;9.34;89.28;99861.38;7395914;19;20022;-68
2022/11/04 05:50:09;;;;;;;23.20;16.60;;;;;;;9.32;89.43;99870.19;7397719;19;20105;-68
2022/11/04 05:52:37;;;;;;;22.70;16.50;;;;;;;9.30;89.78;99880.69;7395434;19;20023;-69
2022/11/04 05:55:09;;;;;;;26.50;17.23;;;;;;;9.28;89.70;99892.97;7396331;19;20064;-69
2022/11/04 05:57:38;;;;;;;24.80;17.88;;;;;;;9.27;89.79;99896.50;7395826;19;20018;-69
2022/11/04 06:00:07;;;;;;;26.40;17.77;;;;;;;9.26;89.94;99900.00;7396730;19;20481;-66
2022/11/04 06:02:36;;;;;;;24.67;17.83;;;;;;;9.25;90.15;99899.16;7395028;19;20482;-67
2022/11/04 06:05:04;;;;;;;26.50;17.38;;;;;;;9.22;90.92;99896.63;7397167;19;20379;-67
2022/11/04 06:07:33;;;;;;;24.63;17.70;;;;;;;9.22;90.84;99903.63;7394740;19;20027;-67
2022/11/04 06:10:01;;;;;;;21.25;16.85;;;;;;;9.20;90.85;99906.31;7396926;19;20035;-66
2022/11/04 06:12:32;;;;;;;26.85;16.85;;;;;;;9.19;90.86;99914.22;7394762;19;20026;-67
2022/11/04 06:15:01;;;;;;;24.02;16.67;;;;;;;9.18;90.88;99913.31;7397707;19;20035;-67
2022/11/04 06:17:29;;;;;;;24.77;18.27;;;;;;;9.17;91.23;99921.22;7395102;19;20078;-67
2022/11/04 06:19:58;;;;;;;26.33;17.60;;;;;;;9.16;91.72;99932.59;7396850;19;20018;-67
2022/11/04 06:22:26;;;;;;;30.40;18.02;;;;;;;9.15;91.51;99933.50;7395047;19;20015;-67
2022/11/04 06:24:54;;;;;;;22.38;16.98;;;;;;;9.15;92.63;99930.88;7394212;19;20083;-67
2022/11/04 06:27:23;;;;;;;30.80;18.20;;;;;;;9.13;92.11;99939.63;7396651;19;20078;-67
2022/11/04 06:29:54;;;;;;;23.98;16.83;;;;;;;9.12;92.60;99935.31;7396357;19;20022;-68
2022/11/04 06:32:23;;;;;;;25.20;16.92;;;;;;;9.11;93.17;99937.94;7395122;19;20105;-67
2022/11/04 06:34:51;;;;;;;25.95;16.98;;;;;;;9.11;93.16;99935.34;7396430;19;20074;-67
2022/11/04 06:37:20;;;;;;;29.23;17.65;;;;;;;9.09;93.69;99935.38;7396198;19;20428;-68
2022/11/04 06:39:48;;;;;;;26.73;17.38;;;;;;;9.08;94.94;99930.22;7395688;19;20530;-67
2022/11/04 06:42:17;;;;;;;30.42;18.70;;;;;;;9.08;95.73;99930.22;7393813;19;20036;-68
2022/11/04 06:44:45;;;;;;;26.85;17.73;;;;;;;9.07;96.42;99933.72;7396244;19;20019;-68
2022/11/04 06:47:16;;;;;;;29.38;17.60;;;;;;;9.05;96.25;99936.38;7396626;19;20094;-68
2022/11/04 06:49:45;;;;;;;31.63;17.88;;;;;;;9.05;97.47;99927.66;7395682;19;20410;-67
2022/11/04 06:52:13;;;;;;;27.58;18.25;;;;;;;9.03;97.82;99934.72;7393591;19;20510;-67
2022/11/04 06:54:42;;;;;;;30.40;19.08;;;;;;;9.02;99.00;99940.84;7394025;19;20022;-67
2022/11/04 06:57:12;;;;;;;30.10;20.27;;;;;;;9.00;98.22;99940.91;7394215;19;20013;-67
2022/11/04 06:59:41;;;;;;;26.42;19.40;;;;;;;8.98;98.72;99940.06;7394643;19;20139;-67
2022/11/04 07:02:12;;;;;;;29.20;19.40;;;;;;;8.99;99.04;99944.41;7393932;19;20506;-67
2022/11/04 07:04:43;;;;;;;29.90;19.60;;;;;;;8.98;99.85;99937.44;7395024;19;20031;-68
2022/11/04 07:07:11;;;;;;;31.10;19.65;;;;;;;8.99;99.98;99948.78;7393241;19;20026;-67
2022/11/04 07:09:46;;;;;;;31.52;19.25;;;;;;;8.98;100.00;99942.69;7394659;19;20419;-68
2022/11/04 07:12:14;;;;;;;33.13;19.25;;;;;;;8.98;100.00;99942.69;7392854;19;20085;-68
2022/11/04 07:14:43;;;;;;;34.05;20.05;;;;;;;8.98;100.00;99955.75;7393055;19;20022;-67
2022/11/04 07:17:11;;;;;;;34.95;19.98;;;;;;;8.98;100.00;99949.69;7394442;19;20020;-67
2022/11/04 07:19:42;;;;;;;33.85;20.40;;;;;;;9.00;100.00;99963.56;7394507;19;20427;-69
2022/11/04 07:22:11;;;;;;;35.80;20.30;;;;;;;8.99;100.00;99944.41;7393556;19;20428;-68
2022/11/04 07:24:40;;;;;;;30.83;19.98;;;;;;;9.00;100.00;99950.47;7395012;19;20038;-68
2022/11/04 07:27:08;;;;;;;36.88;20.95;;;;;;;9.01;100.00;99946.97;7392059;19;20364;-68
2022/11/04 07:29:37;;;;;;;37.13;19.85;;;;;;;9.01;100.00;99931.28;7392716;19;20022;-68
2022/11/04 07:32:06;;;;;;;32.67;19.98;;;;;;;9.02;100.00;99935.59;7393713;19;20022;-68
2022/11/04 07:34:34;;;;;;;32.00;20.27;;;;;;;9.02;100.00;99930.38;7392177;19;20082;-67
2022/11/04 07:37:05;;;;;;;33.42;20.17;;;;;;;9.03;100.00;99930.31;7394268;19;20022;-68
2022/11/04 07:39:40;;;;;;;34.22;20.48;;;;;;;9.03;100.00;99924.25;7394873;19;20039;-67
2022/11/04 07:42:10;;;;;;;37.30;19.77;;;;;;;9.03;100.00;99925.09;7393472;19;20019;-66
2022/11/04 07:44:38;;;;;;;35.13;20.58;;;;;;;9.03;100.00;99922.47;7393940;19;20035;-69
2022/11/04 07:47:07;;;;;;;33.08;19.88;;;;;;;9.02;100.00;99923.38;7394273;19;20026;-67
2022/11/04 07:49:35;;;;;;;33.97;19.70;;;;;;;9.04;100.00;99920.75;7394170;19;20035;-68
2022/11/04 07:52:07;;;;;;;36.63;20.33;;;;;;;9.05;100.00;99920.69;7392038;19;20510;-66
2022/11/04 07:54:36;;;;;;;33.67;19.42;;;;;;;9.06;100.00;99926.75;7392122;19;20028;-68
2022/11/04 07:57:04;;;;;;;34.90;20.52;;;;;;;9.06;100.00;99930.25;7392655;19;20039;-68
2022/11/04 07:59:33;;;;;;;35.03;20.80;;;;;;;9.08;100.00;99935.44;7391947;19;20018;-68
2022/11/04 08:02:01;;;;;;;43.53;19.90;;;;;;;9.09;100.00;99938.00;7392570;19;20498;-68
2022/11/04 08:04:30;;;;;;;32.55;19.35;;;;;;;9.11;100.00;99940.56;7393780;19;20035;-68
2022/11/04 08:06:58;;;;;;;32.70;20.13;;;;;;;9.13;100.00;99946.63;7391948;19;20037;-68
2022/11/04 08:09:29;;;;;;;34.22;20.20;;;;;;;9.13;100.00;99946.63;7391778;19;20022;-69
2022/11/04 08:11:58;;;;;;;34.40;20.20;;;;;;;9.15;100.00;99944.84;7392467;19;20022;-68
2022/11/04 08:14:26;;;;;;;36.63;19.85;;;;;;;9.17;100.00;99944.78;7391019;19;20031;-68
2022/11/04 08:16:55;;;;;;;40.15;21.17;;;;;;;9.19;100.00;99953.47;7393165;19;20023;-68
2022/11/04 08:19:23;;;;;;;39.10;21.52;;;;;;;9.19;100.00;99949.06;7397375;19;20081;-68
2022/11/04 08:21:51;;;;;;;37.75;20.65;;;;;;;9.22;100.00;99953.38;7399784;19;20022;-67
2022/11/04 08:24:20;;;;;;;36.67;20.08;;;;;;;9.24;100.00;99949.78;7397844;19;20022;-68
2022/11/04 08:26:51;;;;;;;36.47;21.08;;;;;;;9.28;100.00;99954.03;7399962;19;20494;-69
2022/11/04 08:29:19;;;;;;;38.00;20.08;;;;;;;9.29;100.00;99963.59;7400101;19;20018;-68
2022/11/04 08:31:48;;;;;;;37.60;21.08;;;;;;;9.33;100.00;99963.53;7399041;19;20035;-69
2022/11/04 08:34:17;;;;;;;40.13;24.55;;;;;;;9.34;100.00;99957.38;7398014;19;20082;-69
2022/11/04 08:36:46;;;;;;;39.25;22.80;;;;;;;9.36;100.00;99963.44;7397342;19;20026;-67
2022/11/04 08:39:15;;;;;;;40.67;23.58;;;;;;;9.39;100.00;99963.31;7399765;19;20086;-68
2022/11/04 08:41:44;;;;;;;34.97;20.75;;;;;;;9.39;100.00;99960.72;7398869;19;20031;-69
2022/11/04 08:44:15;;;;;;;35.92;21.65;;;;;;;9.39;100.00;99960.72;7397885;19;20023;-69
2022/11/04 08:46:45;;;;;;;39.58;23.38;;;;;;;9.39;100.00;99961.59;7399743;19;20467;-69
2022/11/04 08:49:14;;;;;;;38.90;23.83;;;;;;;9.41;100.00;99964.16;7399708;19;20031;-69
2022/11/04 08:51:48;;;;;;;40.08;25.50;;;;;;;9.40;100.00;99963.31;7398343;19;20023;-68
2022/11/04 08:54:17;;;;;;;32.55;20.35;;;;;;;9.39;100.00;99969.44;7397570;19;20010;-68
2022/11/04 08:56:45;;;;;;;36.15;20.25;;;;;;;9.41;100.00;99970.22;7397750;19;20014;-68
2022/11/04 08:59:17;;;;;;;32.95;19.35;;;;;;;9.43;100.00;99975.44;7399631;19;20031;-69
2022/11/04 09:01:46;;;;;;;32.88;19.23;;;;;;;9.44;100.00;99966.69;7397935;19;20510;-68
2022/11/04 09:04:14;;;;;;;31.50;19.35;;;;;;;9.45;100.00;99969.25;7399015;19;20420;-68
2022/11/04 09:06:45;;;;;;;29.83;18.98;;;;;;;9.47;100.00;99963.13;7398882;19;20503;-68
2022/11/04 09:09:15;;;;;;;34.50;19.02;;;;;;;9.48;100.00;99963.06;7398890;19;20015;-69
2022/11/04 09:11:46;;;;;;;33.35;19.73;;;;;;;9.51;100.00;99957.72;7398116;19;20478;-68
2022/11/04 09:14:17;;;;;;;41.45;25.55;;;;;;;9.52;100.00;99953.38;7397629;19;20031;-68
2022/11/04 09:16:45;;;;;;;42.47;27.42;;;;;;;9.50;100.00;99942.91;7399152;19;20015;-68
2022/11/04 09:19:14;;;;;;;40.22;27.20;;;;;;;9.58;100.00;99946.19;7396059;19;20022;-68
2022/11/04 09:21:43;;;;;;;30.00;19.45;;;;;;;9.58;100.00;99940.94;7396736;19;20482;-68
2022/11/04 09:24:12;;;;;;;35.63;20.08;;;;;;;9.62;100.00;99946.94;7398215;19;20039;-67
2022/11/04 09:26:41;;;;;;;27.40;18.35;;;;;;;9.65;100.00;99951.22;7397746;19;20019;-70
2022/11/04 09:29:09;;;;;;;28.85;18.17;;;;;;;9.69;100.00;99955.47;7397715;19;20018;-71
2022/11/04 09:31:42;;;;;;;23.42;16.10;;;;;;;9.71;100.00;99940.56;7394062;19;20022;-69
2022/11/04 09:34:10;;;;;;;26.95;16.67;;;;;;;9.72;100.00;99945.75;7397166;19;20352;-70
2022/11/04 09:36:39;;;;;;;24.95;16.13;;;;;;;9.73;100.00;99944.84;7397772;19;20558;-70
2022/11/04 09:39:07;;;;;;;26.50;17.27;;;;;;;9.76;100.00;99938.66;7397887;19;20027;-69
2022/11/04 09:42:05;;;;;;;26.58;16.23;;;;;;;9.80;100.00;99947.28;7396793;19;20035;-70
2022/11/04 09:44:45;;;;;;;26.85;15.65;;;;;;;9.84;100.00;99954.97;7397408;19;20012;-69
2022/11/04 09:47:18;;;;;;;24.98;16.02;;;;;;;9.88;100.00;99964.47;7398432;19;20019;-70
2022/11/04 09:49:50;;;;;;;21.77;14.50;;;;;;;9.92;100.00;99979.19;7398746;19;20018;-70
2022/11/04 09:52:23;;;;;;;22.85;15.23;;;;;;;9.97;100.00;99979.06;7396208;19;20019;-69
2022/11/04 09:54:57;;;;;;;21.08;14.43;;;;;;;10.02;100.00;99986.75;7396028;19;20015;-69
2022/11/04 09:57:26;;;;;;;18.90;13.02;;;;;;;10.04;100.00;99987.56;7396129;19;20028;-68
2022/11/04 09:59:55;;;;;;;22.63;12.82;;;;;;;10.07;100.00;99992.72;7397681;19;20014;-68
2022/11/04 10:02:48;;;;;;;15.93;10.77;;;;;;;10.05;100.00;99984.06;7395792;19;20014;-68
2022/11/04 10:05:27;;;;;;;16.27;10.18;;;;;;;10.06;100.00;99989.25;7397654;19;20470;-69
2022/11/04 10:08:11;;;;;;;15.57;12.18;;;;;;;10.08;100.00;99983.94;7395576;19;20018;-70
2022/11/04 10:10:47;;;;;;;13.73;10.10;;;;;;;10.07;100.00;99980.47;7395091;19;20481;-68
2022/11/04 10:13:29;;;;;;;16.13;10.70;;;;;;;10.08;100.00;99991.81;7395490;19;20027;-70
2022/11/04 10:16:20;;;;;;;13.82;12.02;;;;;;;10.06;99.73;99997.09;7396988;19;20111;-69
2022/11/04 10:19:18;;;;;;;16.38;12.48;;;;;;;10.07;99.89;100000.56;7394163;19;20010;-69
2022/11/04 10:21:51;;;;;;;14.05;11.75;;;;;;;10.06;99.69;99994.47;7395509;19;20434;-69
2022/11/04 10:24:23;;;;;;;14.73;10.33;;;;;;;10.07;99.42;99993.59;7394397;19;20490;-69
2022/11/04 10:26:58;;;;;;;13.60;10.05;;;;;;;10.07;99.14;99993.59;7394243;19;20035;-69
2022/11/04 10:29:34;;;;;;;11.30;9.57;;;;;;;10.07;99.26;99997.94;7397175;19;20023;-69
2022/11/04 10:32:08;;;;;;;11.40;8.82;;;;;;;10.07;99.16;99996.22;7395771;19;20022;-70
2022/11/04 10:34:45;;;;;;;14.55;10.02;;;;;;;10.06;98.70;99999.72;7393905;19;20091;-68
2022/11/04 10:37:14;;;;;;;11.95;9.80;;;;;;;10.03;98.67;99994.56;7394124;19;20079;-69
2022/11/04 10:39:45;;;;;;;10.55;8.55;;;;;;;10.04;98.70;100004.16;7395826;19;20035;-68
2022/11/04 10:42:16;;;;;;;14.05;9.18;;;;;;;10.04;98.57;100012.00;7394593;19;20018;-69
2022/11/04 10:44:47;;;;;;;12.85;9.10;;;;;;;10.05;98.53;100020.75;7396553;19;20018;-69
2022/11/04 10:47:30;;;;;;;12.70;9.90;;;;;;;10.04;98.42;100030.34;7395947;19;20026;-67
2022/11/04 10:50:15;;;;;;;11.93;9.40;;;;;;;10.06;98.51;100046.03;7396213;19;20028;-68
2022/11/04 10:52:44;;;;;;;11.10;9.25;;;;;;;10.07;98.54;100051.25;7394299;19;20090;-67
2022/11/04 10:55:21;;;;;;;15.32;11.45;;;;;;;10.06;98.14;100067.88;7393900;19;20031;-68
2022/11/04 10:57:49;;;;;;;38.25;30.13;;;;;;;10.07;98.22;100069.59;7393390;19;20086;-69
2022/11/04 11:00:40;;;;;;;36.28;27.65;;;;;;;10.09;98.34;100080.03;7393804;19;20085;-68
2022/11/04 11:03:26;;;;;;;17.45;13.30;;;;;;;10.10;98.09;100077.34;7393212;19;20018;-69
2022/11/04 11:06:12;;;;;;;16.95;13.05;;;;;;;10.11;98.28;100083.47;7394619;19;20370;-70
2022/11/04 11:08:41;;;;;;;15.77;12.85;;;;;;;10.13;98.15;100078.16;7395061;19;20035;-73
2022/11/04 11:11:11;;;;;;;14.45;12.25;;;;;;;10.13;98.20;100084.25;7394288;19;20474;-68
2022/11/04 11:13:42;;;;;;;17.92;13.98;;;;;;;10.14;98.33;100091.22;7395305;19;20379;-69
2022/11/04 11:16:14;;;;;;;19.35;15.07;;;;;;;10.14;98.16;100087.75;7396825;19;20022;-69
2022/11/04 11:18:43;;;;;;;15.23;11.75;;;;;;;10.13;98.10;100079.00;7394945;19;20035;-67
2022/11/04 11:21:20;;;;;;;16.73;11.98;;;;;;;10.12;98.16;100077.28;7392843;19;20019;-68
2022/11/04 11:23:53;;;;;;;25.58;21.35;;;;;;;10.09;98.21;100067.75;7394396;19;20011;-68
2022/11/04 11:26:31;;;;;;;30.20;25.93;;;;;;;10.11;98.29;100073.81;7394976;19;20015;-67
2022/11/04 11:29:02;;;;;;;15.80;13.45;;;;;;;10.08;98.22;100058.22;7394922;19;20011;-67
2022/11/04 11:31:38;;;;;;;18.27;15.98;;;;;;;10.08;98.12;100066.06;7393685;19;20018;-69
2022/11/04 11:34:15;;;;;;;21.17;14.68;;;;;;;10.08;98.20;100070.44;7393422;19;20018;-68
2022/11/04 11:36:48;;;;;;;24.05;18.17;;;;;;;10.07;98.18;100066.09;7394264;19;20071;-70
2022/11/04 11:39:21;;;;;;;40.47;26.90;;;;;;;10.06;98.12;100061.75;7394209;19;20035;-67
2022/11/04 11:41:56;;;;;;;29.90;20.77;;;;;;;10.05;98.15;100053.03;7392721;19;20019;-70
2022/11/04 11:44:31;;;;;;;17.50;13.38;;;;;;;10.04;98.04;100045.22;7393075;19;20022;-69
2022/11/04 11:47:03;;;;;;;15.05;12.18;;;;;;;10.00;98.12;100044.47;7391890;19;20011;-69
2022/11/04 11:49:33;;;;;;;13.68;10.80;;;;;;;9.99;98.24;100047.13;7394393;19;20022;-70
2022/11/04 11:52:35;;;;;;;11.93;9.10;;;;;;;9.97;98.26;100052.44;7392037;19;20411;-69
2022/11/04 11:55:14;;;;;;;11.48;8.88;;;;;;;9.93;98.11;100051.66;7399602;19;20022;-69
2022/11/04 11:57:53;;;;;;;12.00;9.05;;;;;;;9.94;98.09;100055.13;7399076;19;20507;-70
2022/11/04 12:00:27;;;;;;;12.85;8.77;;;;;;;9.93;97.96;100056.03;7401552;19;20018;-69
2022/11/04 12:03:02;;;;;;;11.65;9.30;;;;;;;9.95;98.08;100062.09;7398379;19;20011;-71
2022/11/04 12:05:38;;;;;;;9.65;8.68;;;;;;;9.93;98.00;100045.53;7401302;19;20361;-69
2022/11/04 12:08:33;;;;;;;8.95;8.05;;;;;;;9.93;97.83;100054.28;7397948;19;20011;-70
2022/11/04 12:11:12;;;;;;;10.98;8.27;;;;;;;9.92;97.72;100051.69;7401405;19;20043;-68
2022/11/04 12:13:46;;;;;;;10.75;8.02;;;;;;;9.91;97.80;100056.09;7401544;19;20011;-70
2022/11/04 12:16:27;;;;;;;9.85;8.77;;;;;;;9.90;97.73;100049.13;7400414;19;20038;-73
2022/11/04 12:19:10;;;;;;;11.18;7.75;;;;;;;9.89;97.57;100050.00;7401453;19;20035;-68
2022/11/04 12:21:46;;;;;;;11.23;8.57;;;;;;;9.89;97.57;100057.88;7399263;19;20070;-68